Time;durP1;ratioP1;P1;durP2;ratioP2;P2;SDS_P1;SDS_P2;PMS_P1;PMS_P2;Temp;Humidity;BMP_temperature;BMP_pressure;BME280_temperature;BME280_humidity;BME280_pressure;Samples;Min_cycle;Max_cycle;Signal;HPM_P1;HPM_P2
2022/01/12 00:33:20;;;;;;;64.03;20.90;;;;;;;;;;5034011;23;20036;-91
2022/01/12 00:35:50;;;;;;;57.10;20.40;;;;;;;;;;4945421;29;20015;-92
2022/01/12 00:38:16;;;;;;;61.67;19.57;;;;;;;;;;4943196;29;20000;-90
2022/01/12 00:43:21;;;;;;;59.25;20.25;;;;;;;;;;5110564;23;20054;-92
2022/01/12 00:45:47;;;;;;;56.40;19.10;;;;;;;;;;4931856;29;20020;-89
2022/01/12 00:48:13;;;;;;;58.10;19.92;;;;;;;;;;4925310;29;20020;-91
2022/01/12 00:50:39;;;;;;;56.45;20.40;;;;;;;;;;5204293;23;21203;-91
2022/01/12 00:53:07;;;;;;;54.00;20.08;;;;;;;;;;4939022;29;20023;-91
2022/01/12 00:55:36;;;;;;;;;;;;;;;;;;4927556;29;20016;-90
2022/01/12 00:58:01;;;;;;;52.05;18.00;;;;;;;;;;4935665;29;19997;-91
2022/01/12 01:00:27;;;;;;;54.85;18.92;;;;;;;;;;4935127;29;20036;-91
2022/01/12 01:03:02;;;;;;;54.08;18.88;;;;;;;;;;4945367;28;20031;-91
2022/01/12 01:05:31;;;;;;;56.45;19.30;;;;;;;;;;4955162;29;20048;-90
2022/01/12 01:08:01;;;;;;;54.65;19.50;;;;;;;;;;4943020;29;20008;-91
2022/01/12 01:13:07;;;;;;;55.47;19.45;;;;;;;;;;4958139;29;20031;-91
2022/01/12 01:28:56;;;;;;;56.85;20.15;;;;;;;;;;5621276;23;20067;-87
2022/01/12 01:31:30;;;;;;;48.40;17.40;;;;;;;;;;4957683;29;20035;-90
2022/01/12 01:33:56;;;;;;;51.72;18.48;;;;;;;;;;4936630;29;20056;-89
2022/01/12 01:36:27;;;;;;;54.03;18.23;;;;;;;;;;4935435;29;20015;-91
2022/01/12 01:38:52;;;;;;;53.00;17.73;;;;;;;;;;4941709;29;20039;-90
2022/01/12 01:41:17;;;;;;;47.67;17.17;;;;;;;;;;4937157;29;20027;-91
2022/01/12 01:54:44;;;;;;;45.13;17.05;;;;;;;;;;4957504;29;20108;-90
2022/01/12 01:57:10;;;;;;;45.45;16.67;;;;;;;;;;4941667;29;20035;-93
2022/01/12 01:59:42;;;;;;;46.85;16.30;;;;;;;;;;4938277;29;20024;-90
2022/01/12 02:02:08;;;;;;;41.53;16.33;;;;;;;;;;4939732;29;20024;-91
2022/01/12 02:04:33;;;;;;;41.40;15.87;;;;;;;;;;4940481;29;20058;-90
2022/01/12 02:07:08;;;;;;;41.08;16.63;;;;;;;;;;4940955;29;20053;-89
2022/01/12 02:09:37;;;;;;;46.80;16.17;;;;;;;;;;4939928;29;20031;-93
2022/01/12 02:12:02;;;;;;;44.20;16.70;;;;;;;;;;4940414;29;20011;-91
2022/01/12 02:14:29;;;;;;;44.07;17.27;;;;;;;;;;4940746;29;20024;-89
2022/01/12 02:17:01;;;;;;;43.33;16.60;;;;;;;;;;4940736;29;20011;-91
2022/01/12 02:40:58;;;;;;;39.10;15.47;;;;;;;;;;5347729;23;20042;-89
2022/01/12 02:50:34;;;;;;;41.22;15.60;;;;;;;;;;4960862;28;20059;-89
2022/01/12 05:56:32;;;;;;;40.73;16.70;;;;;;;;;;5521238;23;20044;-76
2022/01/12 05:58:57;;;;;;;42.13;14.57;;;;;;;;;;4917010;29;20024;-77
2022/01/12 06:01:22;;;;;;;47.97;16.63;;;;;;;;;;4916734;29;20035;-77
2022/01/12 06:03:47;;;;;;;43.03;16.07;;;;;;;;;;4916853;29;20032;-77
2022/01/12 06:06:12;;;;;;;52.17;17.63;;;;;;;;;;4917174;29;20027;-77
2022/01/12 06:08:37;;;;;;;40.20;15.53;;;;;;;;;;4917453;29;20031;-78
2022/01/12 06:11:04;;;;;;;45.40;15.97;;;;;;;;;;4900660;29;20020;-76
2022/01/12 06:13:29;;;;;;;39.33;15.60;;;;;;;;;;4901089;29;20020;-77
2022/01/12 06:15:54;;;;;;;40.60;15.83;;;;;;;;;;4901371;29;20087;-77
2022/01/12 06:18:20;;;;;;;39.10;17.17;;;;;;;;;;4917343;29;20466;-77
2022/01/12 06:20:45;;;;;;;36.27;15.47;;;;;;;;;;4916819;29;20080;-76
2022/01/12 06:23:10;;;;;;;38.40;14.43;;;;;;;;;;4916360;29;20112;-76
2022/01/12 06:25:35;;;;;;;40.67;15.27;;;;;;;;;;4916560;29;20389;-77
2022/01/12 06:28:21;;;;;;;38.23;15.50;;;;;;;;;;4899841;29;20028;-77
2022/01/12 06:33:42;;;;;;;38.77;14.67;;;;;;;;;;4903434;29;20091;-77
2022/01/12 06:36:08;;;;;;;39.30;15.13;;;;;;;;;;4899006;29;20262;-78
2022/01/12 06:38:33;;;;;;;38.00;16.57;;;;;;;;;;4899222;29;20024;-77
2022/01/12 06:40:58;;;;;;;37.13;15.20;;;;;;;;;;4915435;29;20156;-76
2022/01/12 06:43:24;;;;;;;38.85;15.13;;;;;;;;;;4915572;29;20108;-77
2022/01/12 06:45:49;;;;;;;38.53;15.60;;;;;;;;;;4899150;29;20036;-76
2022/01/12 06:48:17;;;;;;;34.38;15.55;;;;;;;;;;4916119;29;20111;-76
2022/01/12 06:50:42;;;;;;;35.50;15.38;;;;;;;;;;4916422;29;20055;-76
2022/01/12 06:53:07;;;;;;;32.08;13.45;;;;;;;;;;4916285;29;20024;-77
2022/01/12 06:55:32;;;;;;;36.88;14.15;;;;;;;;;;4916369;29;20066;-75
2022/01/12 06:57:57;;;;;;;29.95;13.23;;;;;;;;;;4916481;29;20425;-75
2022/01/12 07:00:23;;;;;;;34.17;13.20;;;;;;;;;;4899369;29;20024;-75
2022/01/12 07:02:48;;;;;;;33.92;12.68;;;;;;;;;;4915669;29;20028;-74
2022/01/12 07:05:13;;;;;;;30.42;12.57;;;;;;;;;;4915865;29;20107;-76
2022/01/12 07:07:38;;;;;;;31.23;12.60;;;;;;;;;;4915856;29;20386;-77
2022/01/12 07:10:07;;;;;;;24.67;11.85;;;;;;;;;;4916432;29;20020;-77
2022/01/12 07:12:32;;;;;;;30.25;12.10;;;;;;;;;;4915727;29;20025;-77
2022/01/12 07:14:57;;;;;;;28.53;11.50;;;;;;;;;;4916590;29;20051;-77
2022/01/12 07:17:22;;;;;;;27.60;11.83;;;;;;;;;;4917380;29;20474;-76
2022/01/12 07:19:47;;;;;;;25.93;10.77;;;;;;;;;;4916547;29;20048;-76
2022/01/12 07:22:13;;;;;;;31.00;12.25;;;;;;;;;;4916231;29;20020;-75
2022/01/12 07:24:38;;;;;;;26.13;10.10;;;;;;;;;;4916871;29;20024;-76
2022/01/12 07:27:03;;;;;;;28.50;11.73;;;;;;;;;;4916459;29;20027;-78
2022/01/12 07:29:28;;;;;;;32.37;11.50;;;;;;;;;;4899171;29;20024;-77
2022/01/12 07:31:53;;;;;;;29.90;12.17;;;;;;;;;;4915434;29;20405;-77
2022/01/12 07:34:25;;;;;;;30.95;11.90;;;;;;;;;;4898957;29;20482;-76
2022/01/12 07:36:50;;;;;;;31.67;12.27;;;;;;;;;;4915465;29;20029;-76
2022/01/12 07:39:15;;;;;;;37.67;12.25;;;;;;;;;;4915908;29;20027;-76
2022/01/12 07:41:41;;;;;;;23.92;10.60;;;;;;;;;;4898302;29;20024;-75
2022/01/12 07:44:07;;;;;;;27.05;11.05;;;;;;;;;;4898373;29;20029;-76
2022/01/12 07:46:32;;;;;;;28.42;11.30;;;;;;;;;;4898924;29;20103;-75
2022/01/12 07:48:57;;;;;;;26.50;10.87;;;;;;;;;;4916333;29;20016;-75
2022/01/12 07:51:22;;;;;;;25.35;9.98;;;;;;;;;;4916072;29;20016;-75
2022/01/12 07:53:48;;;;;;;27.70;10.95;;;;;;;;;;4917973;29;20027;-76
2022/01/12 07:56:13;;;;;;;27.63;12.30;;;;;;;;;;4919581;29;20497;-76
2022/01/12 07:58:38;;;;;;;25.90;9.95;;;;;;;;;;4919553;29;20028;-76
2022/01/12 08:01:04;;;;;;;28.30;10.75;;;;;;;;;;4919144;29;20063;-77
2022/01/12 08:03:29;;;;;;;22.52;9.68;;;;;;;;;;4902414;29;20107;-75
2022/01/12 08:05:54;;;;;;;25.47;10.23;;;;;;;;;;4919251;29;20024;-75
2022/01/12 08:08:19;;;;;;;24.25;9.93;;;;;;;;;;4919007;29;20017;-77
2022/01/12 08:10:45;;;;;;;24.70;10.02;;;;;;;;;;4919261;29;20095;-76
2022/01/12 08:13:10;;;;;;;25.52;10.20;;;;;;;;;;4919264;29;20032;-77
2022/01/12 08:15:38;;;;;;;26.02;9.52;;;;;;;;;;4902409;29;20028;-76
2022/01/12 08:18:03;;;;;;;39.13;9.23;;;;;;;;;;4919805;29;20024;-76
2022/01/12 08:20:29;;;;;;;26.58;9.60;;;;;;;;;;4919695;29;20044;-77
2022/01/12 08:22:57;;;;;;;23.77;9.63;;;;;;;;;;4918396;29;20024;-79
2022/01/12 08:25:23;;;;;;;18.52;8.38;;;;;;;;;;4918991;29;20050;-77
2022/01/12 08:27:48;;;;;;;20.83;9.88;;;;;;;;;;4919781;29;20036;-77
2022/01/12 08:30:18;;;;;;;25.10;9.13;;;;;;;;;;4902527;29;20026;-77
2022/01/12 08:32:46;;;;;;;23.37;10.17;;;;;;;;;;4919007;29;20442;-77
2022/01/12 08:35:12;;;;;;;27.90;9.50;;;;;;;;;;4918812;29;20059;-76
2022/01/12 08:37:37;;;;;;;22.85;10.38;;;;;;;;;;4901482;29;20028;-77
2022/01/12 08:40:02;;;;;;;20.30;8.50;;;;;;;;;;4918714;29;20024;-76
2022/01/12 08:42:28;;;;;;;24.10;8.70;;;;;;;;;;4918528;29;20440;-76
2022/01/12 08:44:53;;;;;;;30.40;9.25;;;;;;;;;;4918552;29;20112;-76
2022/01/12 08:47:18;;;;;;;18.17;9.20;;;;;;;;;;4918948;29;20493;-75
2022/01/12 08:49:44;;;;;;;22.40;9.43;;;;;;;;;;4918592;29;20470;-74
2022/01/12 08:52:09;;;;;;;24.45;10.73;;;;;;;;;;4901624;29;20032;-73
2022/01/12 08:54:35;;;;;;;27.45;10.50;;;;;;;;;;4918211;29;20107;-74
2022/01/12 08:57:00;;;;;;;22.95;9.23;;;;;;;;;;4918069;29;20512;-74
2022/01/12 08:59:25;;;;;;;16.95;8.10;;;;;;;;;;4918210;29;20461;-74
2022/01/12 09:01:50;;;;;;;18.83;8.55;;;;;;;;;;4901048;29;20016;-74
2022/01/12 09:04:16;;;;;;;18.98;7.78;;;;;;;;;;4900787;29;20035;-77
2022/01/12 09:06:41;;;;;;;20.10;7.53;;;;;;;;;;4918564;29;20084;-77
2022/01/12 09:09:06;;;;;;;18.13;8.80;;;;;;;;;;4917862;29;20482;-79
2022/01/12 09:11:31;;;;;;;20.08;8.75;;;;;;;;;;4918272;29;20470;-77
2022/01/12 09:13:57;;;;;;;16.63;7.82;;;;;;;;;;4918395;29;20107;-78
2022/01/12 09:16:22;;;;;;;20.08;9.10;;;;;;;;;;4918219;29;20020;-78
2022/01/12 09:18:47;;;;;;;21.20;7.90;;;;;;;;;;4901265;29;20124;-77
2022/01/12 09:21:12;;;;;;;14.63;6.47;;;;;;;;;;4919166;29;20478;-76
2022/01/12 09:23:38;;;;;;;19.95;6.63;;;;;;;;;;4918907;29;20032;-77
2022/01/12 09:26:03;;;;;;;14.25;7.20;;;;;;;;;;4919016;29;20480;-77
2022/01/12 09:28:29;;;;;;;15.27;7.47;;;;;;;;;;4918968;29;20124;-76
2022/01/12 09:30:54;;;;;;;16.50;7.40;;;;;;;;;;4918366;29;20020;-76
2022/01/12 09:33:20;;;;;;;15.70;7.22;;;;;;;;;;4917928;29;20103;-77
2022/01/12 09:35:47;;;;;;;19.08;6.50;;;;;;;;;;4919302;29;20055;-76
2022/01/12 09:38:12;;;;;;;16.40;7.22;;;;;;;;;;4900883;29;20114;-76
2022/01/12 09:40:39;;;;;;;14.65;6.22;;;;;;;;;;4917569;29;20074;-77
2022/01/12 09:43:05;;;;;;;16.70;6.72;;;;;;;;;;4917050;29;20079;-76
2022/01/12 09:45:30;;;;;;;16.00;7.18;;;;;;;;;;4916886;29;20024;-77
2022/01/12 09:47:55;;;;;;;20.95;7.70;;;;;;;;;;4917079;29;20445;-76
2022/01/12 09:50:22;;;;;;;15.70;6.75;;;;;;;;;;4914725;29;20016;-76
2022/01/12 09:52:47;;;;;;;15.00;7.43;;;;;;;;;;4915085;29;20041;-76
2022/01/12 09:55:13;;;;;;;13.52;6.93;;;;;;;;;;4916850;29;20024;-76
2022/01/12 09:57:38;;;;;;;15.05;6.43;;;;;;;;;;4917010;29;20028;-76
2022/01/12 10:00:05;;;;;;;13.95;7.05;;;;;;;;;;4917096;29;20020;-76
2022/01/12 10:02:30;;;;;;;15.30;6.03;;;;;;;;;;4910765;29;20042;-76
2022/01/12 10:05:02;;;;;;;13.38;6.75;;;;;;;;;;4916772;29;20499;-76
2022/01/12 10:07:28;;;;;;;14.75;6.25;;;;;;;;;;4916935;29;20056;-76
2022/01/12 10:09:55;;;;;;;14.90;6.85;;;;;;;;;;4917337;29;20067;-76
2022/01/12 10:12:24;;;;;;;12.48;5.93;;;;;;;;;;4917278;29;20121;-77
2022/01/12 10:14:49;;;;;;;12.57;5.32;;;;;;;;;;4900470;29;20071;-77
2022/01/12 10:17:15;;;;;;;14.20;6.04;;;;;;;;;;4914399;29;20063;-76
2022/01/12 10:19:41;;;;;;;13.43;6.10;;;;;;;;;;4917697;29;20024;-76
2022/01/12 10:22:07;;;;;;;13.35;5.60;;;;;;;;;;4917653;29;20027;-76
2022/01/12 10:24:36;;;;;;;15.32;6.22;;;;;;;;;;4900107;29;20027;-76
2022/01/12 10:27:01;;;;;;;13.57;6.15;;;;;;;;;;4900711;29;20024;-76
2022/01/12 10:29:28;;;;;;;16.92;5.65;;;;;;;;;;4917926;29;20031;-76
2022/01/12 10:31:57;;;;;;;12.98;5.50;;;;;;;;;;4916008;29;20075;-77
2022/01/12 10:34:24;;;;;;;20.60;5.97;;;;;;;;;;4917441;29;20605;-77
2022/01/12 10:36:49;;;;;;;15.57;6.28;;;;;;;;;;4900855;29;20020;-76
2022/01/12 10:39:16;;;;;;;11.15;5.82;;;;;;;;;;4918242;29;20051;-77
2022/01/12 10:41:52;;;;;;;11.35;5.97;;;;;;;;;;4900446;29;20020;-76
2022/01/12 10:44:21;;;;;;;13.38;5.82;;;;;;;;;;4916850;29;20072;-77
2022/01/12 10:46:46;;;;;;;12.30;5.72;;;;;;;;;;4916514;29;20024;-77
2022/01/12 10:49:17;;;;;;;10.75;5.47;;;;;;;;;;4916179;29;20025;-77
2022/01/12 10:51:42;;;;;;;13.73;5.90;;;;;;;;;;4916603;29;20023;-76
2022/01/12 10:54:08;;;;;;;11.77;5.85;;;;;;;;;;4916896;29;20024;-76
2022/01/12 10:56:34;;;;;;;12.45;5.93;;;;;;;;;;4899013;29;20118;-77
2022/01/12 10:58:59;;;;;;;13.75;5.97;;;;;;;;;;4915987;29;20169;-76
2022/01/12 11:01:25;;;;;;;11.80;5.88;;;;;;;;;;4915893;29;20103;-76
2022/01/12 11:03:51;;;;;;;12.25;6.45;;;;;;;;;;4914675;29;20024;-77
2022/01/12 11:06:16;;;;;;;15.63;7.13;;;;;;;;;;4916024;29;20047;-76
2022/01/12 11:08:42;;;;;;;13.13;5.55;;;;;;;;;;4915532;29;20012;-77
2022/01/12 11:11:07;;;;;;;13.38;6.10;;;;;;;;;;4915818;29;20016;-77
2022/01/12 11:13:33;;;;;;;13.55;5.80;;;;;;;;;;4915782;29;20397;-77
2022/01/12 11:16:01;;;;;;;16.38;5.85;;;;;;;;;;4916180;29;20440;-75
2022/01/12 11:18:28;;;;;;;11.07;5.88;;;;;;;;;;4916236;29;20033;-77
2022/01/12 11:20:58;;;;;;;10.85;6.28;;;;;;;;;;4916617;29;20031;-77
2022/01/12 11:23:31;;;;;;;20.08;6.47;;;;;;;;;;4917324;29;20028;-77
2022/01/12 11:25:57;;;;;;;13.48;6.75;;;;;;;;;;4916218;29;20059;-76
2022/01/12 11:28:23;;;;;;;14.30;6.43;;;;;;;;;;4917880;29;20047;-76
2022/01/12 11:30:50;;;;;;;14.55;6.25;;;;;;;;;;4920001;29;20048;-76
2022/01/12 11:33:15;;;;;;;14.80;6.32;;;;;;;;;;4919958;29;20079;-77
2022/01/12 11:35:43;;;;;;;11.40;5.35;;;;;;;;;;4920576;29;20020;-76
2022/01/12 11:38:18;;;;;;;11.50;5.10;;;;;;;;;;4920751;29;20043;-77
2022/01/12 11:40:43;;;;;;;12.23;5.88;;;;;;;;;;4921899;29;20504;-76
2022/01/12 11:43:35;;;;;;;12.30;6.32;;;;;;;;;;4918041;29;20020;-78
2022/01/12 11:46:06;;;;;;;12.75;5.80;;;;;;;;;;4890746;29;20047;-77
2022/01/12 11:48:33;;;;;;;12.23;6.43;;;;;;;;;;4903471;29;20024;-77
2022/01/12 11:50:58;;;;;;;13.30;6.53;;;;;;;;;;4919692;29;20031;-77
2022/01/12 11:53:23;;;;;;;11.80;5.15;;;;;;;;;;4919955;29;20032;-77
2022/01/12 11:55:49;;;;;;;14.45;7.18;;;;;;;;;;4919844;29;20035;-78
2022/01/12 11:58:18;;;;;;;13.55;5.93;;;;;;;;;;4936440;23;20067;-75
2022/01/12 12:00:43;;;;;;;14.50;6.15;;;;;;;;;;4903532;29;20103;-75
2022/01/12 12:03:17;;;;;;;16.23;6.65;;;;;;;;;;4919512;29;20093;-75
2022/01/12 12:05:43;;;;;;;14.25;6.65;;;;;;;;;;4920110;29;20016;-75
2022/01/12 12:08:22;;;;;;;13.68;6.30;;;;;;;;;;4919990;29;20023;-75
2022/01/12 12:10:50;;;;;;;13.82;5.88;;;;;;;;;;4919912;29;20500;-75
2022/01/12 12:13:16;;;;;;;13.13;6.53;;;;;;;;;;4919697;29;20165;-75
2022/01/12 12:15:41;;;;;;;13.90;6.60;;;;;;;;;;4919807;29;20052;-75
2022/01/12 12:18:07;;;;;;;13.32;6.72;;;;;;;;;;4920174;29;20063;-75
2022/01/12 12:20:33;;;;;;;14.73;6.82;;;;;;;;;;4919754;29;20035;-75
2022/01/12 12:22:58;;;;;;;14.75;6.78;;;;;;;;;;4920355;29;20028;-75
2022/01/12 12:25:31;;;;;;;15.23;6.32;;;;;;;;;;4919952;29;20111;-75
2022/01/12 12:27:58;;;;;;;14.18;6.57;;;;;;;;;;4920623;29;20052;-75
2022/01/12 12:30:25;;;;;;;12.25;6.38;;;;;;;;;;4919908;29;20016;-75
2022/01/12 12:32:55;;;;;;;14.85;6.45;;;;;;;;;;4901885;29;20028;-75
2022/01/12 12:35:23;;;;;;;15.75;7.43;;;;;;;;;;4920145;29;20103;-75
2022/01/12 12:37:51;;;;;;;14.45;7.05;;;;;;;;;;4920663;29;20020;-75
2022/01/12 12:40:18;;;;;;;12.55;6.03;;;;;;;;;;4918950;29;20032;-75
2022/01/12 12:42:46;;;;;;;16.60;6.93;;;;;;;;;;4920037;29;20107;-75
2022/01/12 12:45:12;;;;;;;18.90;7.35;;;;;;;;;;4919228;29;20243;-75
2022/01/12 12:47:37;;;;;;;18.35;8.68;;;;;;;;;;4919106;29;20119;-75
2022/01/12 12:50:05;;;;;;;22.60;8.85;;;;;;;;;;4919041;29;20020;-75
2022/01/12 12:52:35;;;;;;;18.20;7.70;;;;;;;;;;4918803;29;20023;-75
2022/01/12 12:55:02;;;;;;;15.05;7.32;;;;;;;;;;4918534;29;20020;-75
2022/01/12 12:57:28;;;;;;;16.63;7.60;;;;;;;;;;4918338;29;20016;-75
2022/01/12 13:00:09;;;;;;;16.80;7.55;;;;;;;;;;4918868;29;20024;-75
2022/01/12 13:02:35;;;;;;;17.77;6.80;;;;;;;;;;4901835;29;20027;-75
2022/01/12 13:05:02;;;;;;;17.40;7.50;;;;;;;;;;4919041;29;20016;-75
2022/01/12 13:07:28;;;;;;;17.17;6.93;;;;;;;;;;4919358;29;20024;-75
2022/01/12 13:10:02;;;;;;;11.77;6.60;;;;;;;;;;4919579;29;20022;-75
2022/01/12 13:12:34;;;;;;;18.45;7.55;;;;;;;;;;4918108;29;20020;-75
2022/01/12 13:14:59;;;;;;;23.98;7.05;;;;;;;;;;4917968;29;20047;-75
2022/01/12 13:17:26;;;;;;;15.05;7.07;;;;;;;;;;4918093;29;20489;-75
2022/01/12 13:22:28;;;;;;;17.00;7.15;;;;;;;;;;4917813;29;20107;-75
2022/01/12 13:24:54;;;;;;;14.57;5.40;;;;;;;;;;4917760;29;20028;-75
2022/01/12 13:27:20;;;;;;;13.82;5.97;;;;;;;;;;4917988;29;20044;-75
2022/01/12 13:29:48;;;;;;;14.40;5.95;;;;;;;;;;4900706;29;20074;-75
2022/01/12 13:32:14;;;;;;;11.15;5.45;;;;;;;;;;4918441;29;20031;-76
2022/01/12 13:34:42;;;;;;;10.57;5.40;;;;;;;;;;4919041;29;20028;-74
2022/01/12 13:37:12;;;;;;;14.10;5.65;;;;;;;;;;4918948;29;20024;-75
2022/01/12 13:39:37;;;;;;;15.57;5.38;;;;;;;;;;4918689;29;20044;-75
2022/01/12 13:42:03;;;;;;;13.85;5.82;;;;;;;;;;4918880;29;20504;-75
2022/01/12 13:44:28;;;;;;;13.40;6.25;;;;;;;;;;4914057;29;20513;-75
2022/01/12 13:47:06;;;;;;;13.00;5.88;;;;;;;;;;4898563;29;20033;-75
2022/01/12 13:49:32;;;;;;;13.73;5.45;;;;;;;;;;4899135;29;20059;-75
2022/01/12 13:52:03;;;;;;;10.68;5.25;;;;;;;;;;4898571;29;20103;-75
2022/01/12 13:54:29;;;;;;;14.05;6.43;;;;;;;;;;4898908;29;20099;-75
2022/01/12 13:56:55;;;;;;;12.55;5.90;;;;;;;;;;4899417;29;20044;-75
2022/01/12 13:59:21;;;;;;;11.15;5.18;;;;;;;;;;4898893;29;20497;-74
2022/01/12 14:01:46;;;;;;;11.90;5.60;;;;;;;;;;4899142;29;20457;-75
2022/01/12 14:04:18;;;;;;;12.60;6.05;;;;;;;;;;4882169;29;20095;-75
2022/01/12 14:06:47;;;;;;;13.38;4.95;;;;;;;;;;4898780;29;20020;-75
2022/01/12 14:09:31;;;;;;;12.45;5.60;;;;;;;;;;4900118;29;20092;-75
2022/01/12 14:11:57;;;;;;;11.52;4.95;;;;;;;;;;4882685;29;20017;-74
2022/01/12 14:14:23;;;;;;;13.27;5.63;;;;;;;;;;4882799;29;20478;-75
2022/01/12 14:16:49;;;;;;;17.55;5.80;;;;;;;;;;4899284;29;20072;-75
2022/01/12 14:19:14;;;;;;;11.57;4.95;;;;;;;;;;4900940;29;20084;-75
2022/01/12 14:21:41;;;;;;;9.88;4.72;;;;;;;;;;4899289;29;20043;-75
2022/01/12 14:24:09;;;;;;;12.93;4.70;;;;;;;;;;4887544;29;20059;-75
2022/01/12 14:26:38;;;;;;;12.45;5.38;;;;;;;;;;4903852;29;20023;-75
2022/01/12 14:29:03;;;;;;;;;;;;;;;;;;4907501;29;20043;-75
2022/01/12 14:31:29;;;;;;;10.74;5.04;;;;;;;;;;4900778;29;19907;-75
2022/01/12 14:33:56;;;;;;;12.68;5.30;;;;;;;;;;4918805;29;20048;-75
2022/01/12 14:36:21;;;;;;;17.05;6.07;;;;;;;;;;4920272;29;20031;-75
2022/01/12 14:38:46;;;;;;;12.68;5.55;;;;;;;;;;4921378;29;20032;-75
2022/01/12 14:41:12;;;;;;;13.27;5.15;;;;;;;;;;4920015;29;20326;-75
2022/01/12 14:43:37;;;;;;;11.15;5.30;;;;;;;;;;4918762;29;20028;-75
2022/01/12 14:46:03;;;;;;;13.48;5.75;;;;;;;;;;4904954;29;20072;-75
2022/01/12 14:48:28;;;;;;;13.88;5.47;;;;;;;;;;4911770;29;20016;-75
2022/01/12 14:50:54;;;;;;;13.77;5.95;;;;;;;;;;4902505;29;20107;-75
2022/01/12 14:53:21;;;;;;;13.23;6.72;;;;;;;;;;4905235;29;20131;-75
2022/01/12 14:55:48;;;;;;;16.50;6.68;;;;;;;;;;4910392;29;20024;-75
2022/01/12 14:58:22;;;;;;;14.52;6.78;;;;;;;;;;4918997;29;20323;-75
2022/01/12 15:00:48;;;;;;;17.65;7.03;;;;;;;;;;4881587;29;20029;-75
2022/01/12 15:03:14;;;;;;;20.63;6.63;;;;;;;;;;4897385;29;20017;-75
2022/01/12 15:05:40;;;;;;;15.45;6.88;;;;;;;;;;4897832;29;20048;-75
2022/01/12 15:08:06;;;;;;;18.95;6.72;;;;;;;;;;4897684;29;20073;-75
2022/01/12 15:10:32;;;;;;;15.52;8.07;;;;;;;;;;4881055;29;20024;-75
2022/01/12 15:13:05;;;;;;;14.52;7.13;;;;;;;;;;4881805;29;20474;-75
2022/01/12 15:15:32;;;;;;;18.08;8.00;;;;;;;;;;4898766;29;20406;-75
2022/01/12 15:17:57;;;;;;;14.70;6.55;;;;;;;;;;4898939;29;20020;-75
2022/01/12 15:20:24;;;;;;;18.02;7.93;;;;;;;;;;4898422;29;20024;-75
2022/01/12 15:22:49;;;;;;;18.20;7.28;;;;;;;;;;4899064;29;20180;-76
2022/01/12 15:25:19;;;;;;;15.50;6.18;;;;;;;;;;4898831;29;20090;-75
2022/01/12 15:27:45;;;;;;;15.82;7.18;;;;;;;;;;4899310;29;20017;-75
2022/01/12 15:30:11;;;;;;;20.58;7.30;;;;;;;;;;4882723;29;20028;-75
2022/01/12 15:32:36;;;;;;;16.33;7.13;;;;;;;;;;4899685;29;20486;-75
2022/01/12 15:35:02;;;;;;;14.60;7.65;;;;;;;;;;4899097;29;20028;-75
2022/01/12 15:37:27;;;;;;;17.48;8.23;;;;;;;;;;4899198;29;20032;-75
2022/01/12 15:39:54;;;;;;;14.85;7.20;;;;;;;;;;4882078;29;20028;-75
2022/01/12 15:42:20;;;;;;;19.48;8.00;;;;;;;;;;4898459;29;20035;-75
2022/01/12 15:44:45;;;;;;;17.40;7.50;;;;;;;;;;4898057;29;20021;-75
2022/01/12 15:47:12;;;;;;;14.70;6.90;;;;;;;;;;4899139;29;20021;-75
2022/01/12 15:49:37;;;;;;;13.52;7.40;;;;;;;;;;4916577;29;20025;-75
2022/01/12 15:52:02;;;;;;;18.50;7.80;;;;;;;;;;4916146;29;20362;-75
2022/01/12 15:54:28;;;;;;;25.13;10.25;;;;;;;;;;4916683;29;20482;-75
2022/01/12 15:56:53;;;;;;;21.30;8.23;;;;;;;;;;4915791;29;20400;-75
2022/01/12 15:59:19;;;;;;;15.95;7.53;;;;;;;;;;4915919;29;20401;-76
2022/01/12 16:01:45;;;;;;;17.55;7.53;;;;;;;;;;4915671;29;20024;-75
2022/01/12 16:04:11;;;;;;;16.80;7.68;;;;;;;;;;4899131;29;20032;-74
2022/01/12 16:06:36;;;;;;;20.80;7.72;;;;;;;;;;4898745;29;20498;-74
2022/01/12 16:09:02;;;;;;;19.90;7.85;;;;;;;;;;4898450;29;20024;-74
2022/01/12 16:11:28;;;;;;;19.38;7.70;;;;;;;;;;4915454;29;20022;-74
2022/01/12 16:13:56;;;;;;;15.52;7.93;;;;;;;;;;4917633;29;20020;-76
2022/01/12 16:16:22;;;;;;;17.85;8.23;;;;;;;;;;4903798;29;20028;-75
2022/01/12 16:18:47;;;;;;;14.60;7.35;;;;;;;;;;4919627;29;20489;-75
2022/01/12 16:21:12;;;;;;;21.80;8.05;;;;;;;;;;4919430;29;20027;-75
2022/01/12 16:23:38;;;;;;;21.45;7.97;;;;;;;;;;4900548;29;20054;-75
2022/01/12 16:26:04;;;;;;;16.65;6.65;;;;;;;;;;4908836;29;20016;-74
2022/01/12 16:28:29;;;;;;;14.18;6.68;;;;;;;;;;4919774;29;20024;-75
2022/01/12 16:30:59;;;;;;;19.40;7.95;;;;;;;;;;4919185;29;20048;-75
2022/01/12 16:33:27;;;;;;;19.00;8.05;;;;;;;;;;4918666;29;20020;-74
2022/01/12 16:35:53;;;;;;;13.70;6.82;;;;;;;;;;4919335;29;20024;-75
2022/01/12 16:38:21;;;;;;;14.30;6.53;;;;;;;;;;4918862;29;20034;-75
2022/01/12 16:40:49;;;;;;;19.98;7.22;;;;;;;;;;4918590;29;20028;-75
2022/01/12 16:43:14;;;;;;;13.50;6.95;;;;;;;;;;4918471;29;20055;-75
2022/01/12 16:45:39;;;;;;;14.07;7.10;;;;;;;;;;4900688;29;20040;-75
2022/01/12 16:48:05;;;;;;;13.80;7.38;;;;;;;;;;4906528;29;20544;-75
2022/01/12 16:50:30;;;;;;;16.38;6.45;;;;;;;;;;4901670;29;20020;-75
2022/01/12 16:52:56;;;;;;;15.70;6.93;;;;;;;;;;4918457;29;20072;-75
2022/01/12 16:55:21;;;;;;;17.80;7.88;;;;;;;;;;4901269;29;20046;-76
2022/01/12 16:57:47;;;;;;;13.32;6.72;;;;;;;;;;4901141;29;20075;-75
2022/01/12 17:00:12;;;;;;;14.65;6.80;;;;;;;;;;4918217;29;20068;-76
2022/01/12 17:02:37;;;;;;;13.43;6.93;;;;;;;;;;4918114;29;20028;-75
2022/01/12 17:05:03;;;;;;;14.70;5.88;;;;;;;;;;4901390;29;20512;-75
2022/01/12 17:07:28;;;;;;;14.05;6.15;;;;;;;;;;4901821;29;20024;-75
2022/01/12 17:09:53;;;;;;;16.88;7.15;;;;;;;;;;4901075;29;20020;-75
2022/01/12 17:12:19;;;;;;;16.17;6.63;;;;;;;;;;4918367;29;20020;-76
2022/01/12 17:14:44;;;;;;;14.00;6.40;;;;;;;;;;4918206;29;20059;-76
2022/01/12 17:17:27;;;;;;;16.95;7.22;;;;;;;;;;4918002;29;20111;-75
2022/01/12 17:19:53;;;;;;;16.15;7.50;;;;;;;;;;4916638;29;20092;-75
2022/01/12 17:22:19;;;;;;;14.70;7.05;;;;;;;;;;4900543;29;20024;-75
2022/01/12 17:25:06;;;;;;;13.98;6.63;;;;;;;;;;4915329;29;20173;-75
2022/01/12 17:27:33;;;;;;;13.80;7.07;;;;;;;;;;4917401;29;20020;-75
2022/01/12 17:29:59;;;;;;;15.30;6.82;;;;;;;;;;4901140;29;20111;-75
2022/01/12 17:32:27;;;;;;;18.63;7.90;;;;;;;;;;4918128;29;20445;-76
2022/01/12 17:34:52;;;;;;;16.83;6.95;;;;;;;;;;4917408;29;20040;-75
2022/01/12 17:37:17;;;;;;;14.82;6.55;;;;;;;;;;4917615;29;20035;-75
2022/01/12 17:39:46;;;;;;;15.25;7.57;;;;;;;;;;4917518;29;20024;-76
2022/01/12 17:42:16;;;;;;;18.13;8.32;;;;;;;;;;4902825;29;20099;-75
2022/01/12 17:44:43;;;;;;;18.88;7.68;;;;;;;;;;4901559;29;20032;-76
2022/01/12 17:47:10;;;;;;;15.63;7.43;;;;;;;;;;4900245;29;20036;-75
2022/01/12 17:52:20;;;;;;;20.02;8.07;;;;;;;;;;4917420;29;20031;-75
2022/01/12 17:54:45;;;;;;;22.17;9.82;;;;;;;;;;4917592;29;20049;-75
2022/01/12 17:57:13;;;;;;;24.08;10.88;;;;;;;;;;4917481;29;20020;-75
2022/01/12 17:59:39;;;;;;;24.88;11.20;;;;;;;;;;4933745;23;20505;-77
2022/01/12 18:02:04;;;;;;;22.25;10.80;;;;;;;;;;4918256;29;20031;-78
2022/01/12 18:04:29;;;;;;;24.95;12.27;;;;;;;;;;4918934;29;20039;-77
2022/01/12 18:06:55;;;;;;;28.38;12.77;;;;;;;;;;4918527;29;20024;-77
2022/01/12 18:09:20;;;;;;;32.45;14.93;;;;;;;;;;4902559;29;20030;-79
2022/01/12 18:11:45;;;;;;;27.92;14.07;;;;;;;;;;4919413;29;20027;-77
2022/01/12 18:14:10;;;;;;;30.77;14.38;;;;;;;;;;4901903;29;20111;-76
2022/01/12 18:16:38;;;;;;;32.70;15.50;;;;;;;;;;4918281;29;20151;-78
2022/01/12 18:19:21;;;;;;;35.33;15.43;;;;;;;;;;4918211;29;20058;-76
2022/01/12 18:21:50;;;;;;;33.47;15.23;;;;;;;;;;4917891;29;20554;-78
2022/01/12 18:24:15;;;;;;;33.97;16.35;;;;;;;;;;4918244;29;20150;-76
2022/01/12 18:26:41;;;;;;;34.72;15.65;;;;;;;;;;4918022;29;20129;-77
2022/01/12 18:29:06;;;;;;;35.80;14.75;;;;;;;;;;4901706;29;20035;-77
2022/01/12 18:31:34;;;;;;;32.95;16.17;;;;;;;;;;4901883;29;20388;-78
2022/01/12 18:33:59;;;;;;;35.83;15.43;;;;;;;;;;4918507;29;20032;-77
2022/01/12 18:36:24;;;;;;;38.22;15.57;;;;;;;;;;4918039;29;20016;-77
2022/01/12 18:38:50;;;;;;;29.77;14.40;;;;;;;;;;4916814;29;20024;-77
2022/01/12 18:41:15;;;;;;;32.38;15.45;;;;;;;;;;4917448;29;20028;-77
2022/01/12 18:43:41;;;;;;;30.23;14.57;;;;;;;;;;4900729;29;20028;-75
2022/01/12 18:46:09;;;;;;;30.50;15.20;;;;;;;;;;4917642;29;20035;-76
2022/01/12 18:48:34;;;;;;;33.63;15.23;;;;;;;;;;4900230;29;20034;-76
2022/01/12 18:50:59;;;;;;;31.98;14.63;;;;;;;;;;4916868;29;20129;-76
2022/01/12 18:53:24;;;;;;;29.25;15.60;;;;;;;;;;4917439;29;20428;-78
2022/01/12 18:55:50;;;;;;;33.80;15.02;;;;;;;;;;4900841;29;20475;-78
2022/01/12 18:58:15;;;;;;;32.83;16.23;;;;;;;;;;4917388;29;20043;-77
2022/01/12 19:00:41;;;;;;;31.40;15.18;;;;;;;;;;4917054;29;20470;-78
2022/01/12 19:03:07;;;;;;;30.25;15.35;;;;;;;;;;4917196;29;20032;-78
2022/01/12 19:05:33;;;;;;;35.35;16.38;;;;;;;;;;4917919;29;20016;-77